Memphis, TN

10:10 AM CDT on April 23, 2017 (GMT -0500)
Tioga Environmental in the Pinch District | | Change Station

Elev 230 ft 35.15 °N, 90.05 °W | Updated 2 seconds ago

Overcast
Overcast
52.7 °F
Feels Like 52.7 °F
N
6.5
Wind Variable Wind from West
Gusts 7.4 mph

Today
High -- | Low -- °F
--% Chance of Precip.
Yesterday
High -- | Low -- °F
Precip. -- in
Pressure 29.95 in
Visibility 6.0 miles
Clouds Scattered Clouds 2100 ft
Overcast 3300 ft
Dew Point 44 °F
Humidity 71%
Rainfall 0.02 in
Snow Depth Not available.
6:17 AM 7:39 PM
Waning Crescent, 11% visible
METAR KMEM 231454Z 34011G17KT 6SM -DZ SCT021 OVC033 12/08 A2995 RMK AO2 SLP140 P0000 60000 T01220083 51008
Pressure 29.95 in
Visibility 6.0 miles
Clouds Scattered Clouds 2100 ft
Overcast 3300 ft
Dew Point 44 °F
Humidity 71%
Rainfall 0.02 in
Snow Depth Not available.
6:17 AM 7:39 PM
Waning Crescent, 11% visible
METAR KMEM 231454Z 34011G17KT 6SM -DZ SCT021 OVC033 12/08 A2995 RMK AO2 SLP140 P0000 60000 T01220083 51008

Get Severe Weather Alerts

Thanks for signing up!

Be on the lookout for a verification email in your inbox.

You'll start receiving the daily forecast at 8 AM.

×

10-Day Weather Forecast

Almanac

Astronomy

Apr. 23, 2017 Rise Set
Actual Time
Civil Twilight
Nautical Twilight
Astronomical Twilight
Moon
Length of Visible Light
Length of Day
Tomorrow will be .
, % of the Moon is Illuminated

Today's Extremes

State Highs State Lows

Community

WunderPhotos

WunderBlog® & News

Nearby

Air Quality

  Air Quality AQ Index Pollutant
Not available.

Snow Depth

Station Depth Elevation

Earthquake Activity

City Distance Mag. Time & Date
Minimum magnitude displayed is 2.5.

Coastal Water Temperatures

Place Temperature

Stations

Nearby Weather Stations

Station Location Temp. Windchill Dew Point Humidity Wind Precip. Elev Updated Type
                   

Watches & Warnings

There are currently no watches in effect.